createdAt,value
2023-09-17T00:01:12.391Z,14.68
2023-09-17T00:03:36.233Z,15.07
2023-09-17T00:05:59.981Z,14.45
2023-09-17T00:08:23.642Z,15.02
2023-09-17T00:10:47.389Z,15.40
2023-09-17T00:13:11.224Z,15.90
2023-09-17T00:15:36.555Z,18.08
2023-09-17T00:18:00.663Z,16.48
2023-09-17T00:20:24.303Z,18.30
2023-09-17T00:22:48.071Z,16.55
2023-09-17T00:25:12.208Z,18.27
2023-09-17T00:27:35.911Z,17.27
2023-09-17T00:29:58.578Z,16.90
2023-09-17T00:32:23.656Z,17.60
2023-09-17T00:34:47.614Z,16.83
2023-09-17T00:37:12.678Z,15.27
2023-09-17T00:39:37.759Z,14.10
2023-09-17T00:42:01.510Z,15.80
2023-09-17T00:44:25.119Z,16.02
2023-09-17T00:46:50.083Z,15.60
2023-09-17T00:49:15.532Z,15.07
2023-09-17T00:51:39.236Z,15.05
2023-09-17T00:54:02.916Z,15.27
2023-09-17T00:56:28.260Z,14.65
2023-09-17T00:58:53.322Z,15.02
2023-09-17T01:01:17.136Z,15.40
2023-09-17T01:03:42.239Z,14.65
2023-09-17T01:06:09.220Z,15.18
2023-09-17T01:08:33.742Z,15.13
2023-09-17T01:10:57.631Z,14.60
2023-09-17T01:13:21.501Z,15.75
2023-09-17T01:15:45.135Z,14.85
2023-09-17T01:18:12.049Z,14.82
2023-09-17T01:20:46.543Z,15.85
2023-09-17T01:23:21.392Z,14.60
2023-09-17T01:25:57.382Z,13.95
2023-09-17T01:28:23.550Z,14.32
2023-09-17T01:30:48.290Z,13.90
2023-09-17T01:33:12.149Z,14.25
2023-09-17T01:35:36.386Z,13.85
2023-09-17T01:38:03.376Z,13.68
2023-09-17T01:40:28.124Z,14.30
2023-09-17T01:42:53.271Z,14.10
2023-09-17T01:45:19.043Z,14.32
2023-09-17T01:47:44.975Z,13.60
2023-09-17T01:50:10.377Z,14.27
2023-09-17T01:52:35.497Z,13.85
2023-09-17T01:54:59.094Z,13.45
2023-09-17T01:57:22.734Z,13.60
2023-09-17T01:59:46.331Z,14.85
2023-09-17T02:02:11.485Z,13.70
2023-09-17T02:04:35.358Z,13.52
2023-09-17T02:06:59.061Z,13.75
2023-09-17T02:09:23.136Z,13.73
2023-09-17T02:11:46.970Z,12.57
2023-09-17T02:14:10.558Z,13.43
2023-09-17T02:16:34.330Z,12.73
2023-09-17T02:19:01.872Z,13.80
2023-09-17T02:21:25.569Z,12.32
2023-09-17T02:23:49.620Z,12.73
2023-09-17T02:26:13.607Z,13.63
2023-09-17T02:28:37.234Z,13.13
2023-09-17T02:31:03.592Z,13.52
2023-09-17T02:33:27.265Z,12.75
2023-09-17T02:35:52.380Z,13.02
2023-09-17T02:38:16.141Z,12.52
2023-09-17T02:40:41.174Z,12.45
2023-09-17T02:43:04.945Z,12.65
2023-09-17T02:45:28.751Z,12.20
2023-09-17T02:47:52.529Z,11.90
2023-09-17T02:50:16.347Z,13.20
2023-09-17T02:52:41.752Z,12.82
2023-09-17T02:55:06.218Z,12.80
2023-09-17T02:57:30.074Z,12.57
2023-09-17T02:59:54.666Z,12.77
2023-09-17T03:02:19.232Z,12.52
2023-09-17T03:04:43.055Z,12.77
2023-09-17T03:07:07.352Z,13.10
2023-09-17T03:09:33.069Z,12.63
2023-09-17T03:11:56.703Z,12.25
2023-09-17T03:14:21.438Z,11.65
2023-09-17T03:16:45.230Z,11.18
2023-09-17T03:19:09.053Z,11.70
2023-09-17T03:21:32.955Z,11.52
2023-09-17T03:23:56.891Z,12.57
2023-09-17T03:26:23.752Z,11.60
2023-09-17T03:28:47.510Z,11.30
2023-09-17T03:31:11.186Z,11.15
2023-09-17T03:33:35.279Z,11.50
2023-09-17T03:36:00.264Z,11.95
2023-09-17T03:38:23.963Z,11.75
2023-09-17T03:40:47.850Z,11.05
2023-09-17T03:43:13.658Z,10.65
2023-09-17T03:45:37.345Z,11.38
2023-09-17T03:48:01.026Z,11.07
2023-09-17T03:50:26.079Z,10.88
2023-09-17T03:52:52.960Z,11.65
2023-09-17T03:55:17.817Z,10.98
2023-09-17T03:57:42.073Z,11.00
2023-09-17T04:00:11.477Z,11.48
2023-09-17T04:02:38.351Z,11.52
2023-09-17T04:05:02.648Z,11.20
2023-09-17T04:07:27.277Z,11.43
2023-09-17T04:09:50.916Z,11.63
2023-09-17T04:12:15.839Z,11.93
2023-09-17T04:14:39.730Z,11.75
2023-09-17T04:17:06.698Z,11.95
2023-09-17T04:19:31.074Z,11.10
2023-09-17T04:21:54.777Z,11.27
2023-09-17T04:24:18.336Z,11.30
2023-09-17T04:26:45.461Z,11.13
2023-09-17T04:29:10.922Z,11.75
2023-09-17T04:31:34.665Z,11.75
2023-09-17T04:33:59.787Z,10.68
2023-09-17T04:36:23.739Z,10.98
2023-09-17T04:38:48.131Z,11.20
2023-09-17T04:41:11.758Z,11.02
2023-09-17T04:43:35.408Z,10.95
2023-09-17T04:46:00.550Z,11.00
2023-09-17T04:48:28.065Z,11.60
2023-09-17T04:50:53.137Z,11.32
2023-09-17T04:53:17.121Z,10.48
2023-09-17T04:55:42.963Z,10.27
2023-09-17T04:58:06.812Z,10.23
2023-09-17T05:00:30.791Z,10.80
2023-09-17T05:02:54.825Z,10.95
2023-09-17T05:05:23.983Z,11.68
2023-09-17T05:07:51.544Z,10.88
2023-09-17T05:10:16.609Z,10.63
2023-09-17T05:12:40.548Z,10.48
2023-09-17T05:15:04.562Z,11.18
2023-09-17T05:17:28.466Z,11.43
2023-09-17T05:19:52.637Z,10.93
2023-09-17T05:22:16.452Z,11.45
2023-09-17T05:24:42.090Z,10.70
2023-09-17T05:27:06.573Z,11.38
2023-09-17T05:29:30.454Z,11.15
2023-09-17T05:31:54.741Z,11.55
2023-09-17T05:34:20.857Z,11.07
2023-09-17T05:36:44.661Z,10.75
2023-09-17T05:39:09.695Z,10.82
2023-09-17T05:41:34.967Z,11.10
2023-09-17T05:43:58.706Z,10.82
2023-09-17T05:46:22.560Z,11.77
2023-09-17T05:48:46.212Z,10.20
2023-09-17T05:51:09.955Z,11.00
2023-09-17T05:53:33.596Z,12.10
2023-09-17T05:55:57.376Z,11.52
2023-09-17T05:58:22.692Z,11.10
2023-09-17T06:00:46.656Z,9.98
2023-09-17T06:03:10.422Z,10.18
2023-09-17T06:05:34.203Z,8.80
2023-09-17T06:07:57.814Z,8.52
2023-09-17T06:10:22.299Z,9.25
2023-09-17T06:12:45.947Z,9.45
2023-09-17T06:15:11.973Z,9.70
2023-09-17T06:17:36.593Z,10.02
2023-09-17T06:20:00.474Z,10.07
2023-09-17T06:22:24.927Z,9.85
2023-09-17T06:24:48.827Z,9.38
2023-09-17T06:27:12.436Z,9.38
2023-09-17T06:29:36.164Z,8.65
2023-09-17T06:32:01.434Z,8.63
2023-09-17T06:34:26.253Z,8.48
2023-09-17T06:36:49.937Z,9.10
2023-09-17T06:39:14.169Z,8.38
2023-09-17T06:41:41.059Z,9.05
2023-09-17T06:44:07.280Z,8.10
2023-09-17T06:46:31.146Z,8.85
2023-09-17T06:48:56.201Z,8.45
2023-09-17T06:51:20.127Z,8.50
2023-09-17T06:53:43.786Z,8.13
2023-09-17T06:56:09.859Z,8.05
2023-09-17T06:58:33.651Z,8.10
2023-09-17T07:00:57.321Z,8.18
2023-09-17T07:03:21.072Z,8.38
2023-09-17T07:05:46.169Z,8.60
2023-09-17T07:08:09.828Z,8.73
2023-09-17T07:10:33.574Z,8.45
2023-09-17T07:12:57.375Z,8.23
2023-09-17T07:15:21.573Z,8.85
2023-09-17T07:17:45.294Z,9.85
2023-09-17T07:20:10.423Z,11.65
2023-09-17T07:22:36.219Z,12.23
2023-09-17T07:25:00.764Z,11.95
2023-09-17T07:27:24.502Z,15.20
2023-09-17T07:29:49.290Z,12.38
2023-09-17T07:32:13.436Z,14.73
2023-09-17T07:34:37.224Z,9.85
2023-09-17T07:37:01.856Z,9.35
2023-09-17T07:39:26.843Z,9.48
2023-09-17T07:41:50.509Z,9.57
2023-09-17T07:44:14.095Z,8.80
2023-09-17T07:46:37.804Z,9.75
2023-09-17T07:49:01.692Z,8.73
2023-09-17T07:51:25.554Z,9.73
2023-09-17T07:53:49.391Z,9.43
2023-09-17T07:56:16.598Z,8.95
2023-09-17T07:58:42.366Z,8.90
2023-09-17T08:01:08.030Z,8.77
2023-09-17T08:03:31.749Z,9.10
2023-09-17T08:05:55.523Z,8.77
2023-09-17T08:08:19.387Z,9.30
2023-09-17T08:10:43.315Z,8.77
2023-09-17T08:13:08.466Z,9.27
2023-09-17T08:15:32.180Z,8.35
2023-09-17T08:17:56.017Z,8.40
2023-09-17T08:20:21.020Z,8.35
2023-09-17T08:22:45.216Z,8.18
2023-09-17T08:25:10.997Z,7.90
2023-09-17T08:27:34.583Z,8.25
2023-09-17T08:30:04.596Z,7.93
2023-09-17T08:32:28.592Z,9.07
2023-09-17T08:34:52.274Z,7.95
2023-09-17T08:37:15.906Z,7.75
2023-09-17T08:39:39.584Z,8.38
2023-09-17T08:42:04.750Z,8.50
2023-09-17T08:44:30.118Z,8.40
2023-09-17T08:46:57.728Z,8.57
2023-09-17T08:49:21.445Z,8.18
2023-09-17T08:51:47.627Z,7.97
2023-09-17T08:54:16.176Z,7.95
2023-09-17T08:56:45.703Z,8.52
2023-09-17T08:59:13.334Z,8.38
2023-09-17T09:01:39.873Z,7.53
2023-09-17T09:04:07.584Z,8.13
2023-09-17T09:06:32.548Z,8.35
2023-09-17T09:08:57.356Z,8.32
2023-09-17T09:11:21.490Z,7.75
2023-09-17T09:13:45.563Z,7.65
2023-09-17T09:16:09.881Z,7.95
2023-09-17T09:18:33.573Z,8.05
2023-09-17T09:20:58.610Z,7.50
2023-09-17T09:23:22.259Z,8.35
2023-09-17T09:25:47.059Z,7.05
2023-09-17T09:28:10.750Z,6.88
2023-09-17T09:30:34.674Z,7.43
2023-09-17T09:32:59.441Z,7.78
2023-09-17T09:35:24.441Z,7.55
2023-09-17T09:37:51.257Z,7.20
2023-09-17T09:40:16.789Z,7.28
2023-09-17T09:42:40.451Z,6.75
2023-09-17T09:45:05.861Z,6.55
2023-09-17T09:47:29.545Z,6.38
2023-09-17T09:49:53.179Z,6.50
2023-09-17T09:52:17.992Z,5.75
2023-09-17T09:54:45.019Z,5.95
2023-09-17T09:57:09.547Z,6.15
2023-09-17T09:59:33.496Z,6.32
2023-09-17T10:01:57.356Z,6.22
2023-09-17T10:04:21.105Z,5.30
2023-09-17T10:06:44.784Z,5.65
2023-09-17T10:09:10.718Z,5.45
2023-09-17T10:11:36.946Z,5.50
2023-09-17T10:14:05.242Z,5.28
2023-09-17T10:16:30.761Z,4.88
2023-09-17T10:18:55.358Z,5.15
2023-09-17T10:21:19.354Z,5.47
2023-09-17T10:23:44.046Z,5.63
2023-09-17T10:26:11.412Z,5.10
2023-09-17T10:28:38.195Z,5.30
2023-09-17T10:31:03.083Z,5.20
2023-09-17T10:33:29.645Z,5.90
2023-09-17T10:35:54.411Z,5.25
2023-09-17T10:38:20.886Z,5.45
2023-09-17T10:40:45.433Z,5.40
2023-09-17T10:43:10.362Z,4.82
2023-09-17T10:45:38.834Z,4.97
2023-09-17T10:48:04.908Z,5.20
2023-09-17T10:50:29.794Z,4.32
2023-09-17T10:52:53.521Z,4.70
2023-09-17T10:55:17.686Z,4.72
2023-09-17T10:57:44.012Z,4.60
2023-09-17T11:00:12.727Z,4.85
2023-09-17T11:02:39.422Z,4.85
2023-09-17T11:05:05.994Z,4.32
2023-09-17T11:07:32.131Z,4.90
2023-09-17T11:09:57.092Z,4.57
2023-09-17T11:12:24.175Z,4.47
2023-09-17T11:14:48.316Z,4.43
2023-09-17T11:17:11.947Z,4.97
2023-09-17T11:19:37.041Z,4.88
2023-09-17T11:22:14.898Z,4.63
2023-09-17T11:24:39.284Z,4.78
2023-09-17T11:27:05.644Z,4.30
2023-09-17T11:29:40.987Z,4.50
2023-09-17T11:32:06.298Z,5.00
2023-09-17T11:34:30.075Z,4.95
2023-09-17T11:36:55.328Z,5.10
2023-09-17T11:39:21.791Z,5.00
2023-09-17T11:41:47.683Z,5.20
2023-09-17T11:44:11.379Z,4.80
2023-09-17T11:46:35.678Z,4.43
2023-09-17T11:48:59.339Z,3.95
2023-09-17T11:51:26.937Z,3.90
2023-09-17T11:53:59.581Z,3.50
2023-09-17T11:56:23.406Z,3.85
2023-09-17T11:58:47.041Z,3.28
2023-09-17T12:01:10.868Z,3.30
2023-09-17T12:03:34.525Z,2.88
2023-09-17T12:05:59.277Z,2.80
2023-09-17T12:08:23.437Z,2.80
2023-09-17T12:10:53.605Z,2.60
2023-09-17T12:13:18.078Z,2.58
2023-09-17T12:15:43.081Z,3.20
2023-09-17T12:18:07.801Z,3.25
2023-09-17T12:20:42.453Z,3.20
2023-09-17T12:23:14.274Z,3.47
2023-09-17T12:25:45.261Z,3.45
2023-09-17T12:28:10.336Z,3.15
2023-09-17T12:30:34.012Z,3.33
2023-09-17T12:32:57.723Z,3.30
2023-09-17T12:35:21.591Z,3.30
2023-09-17T12:37:45.289Z,3.42
2023-09-17T12:40:10.139Z,3.42
2023-09-17T12:42:35.943Z,3.67
2023-09-17T12:45:00.979Z,3.30
2023-09-17T12:47:26.311Z,3.17
2023-09-17T12:49:50.485Z,3.30
2023-09-17T12:52:15.172Z,3.42
2023-09-17T12:54:38.872Z,3.45
2023-09-17T12:57:03.711Z,3.63
2023-09-17T12:59:30.803Z,4.10
2023-09-17T13:01:57.146Z,3.40
2023-09-17T13:04:20.989Z,4.10
2023-09-17T13:06:44.840Z,3.58
2023-09-17T13:09:08.952Z,3.70
2023-09-17T13:11:32.886Z,3.53
2023-09-17T13:13:58.297Z,3.67
2023-09-17T13:16:23.202Z,3.85
2023-09-17T13:18:51.539Z,3.72
2023-09-17T13:21:16.055Z,3.67
2023-09-17T13:23:40.547Z,3.65
2023-09-17T13:26:04.317Z,3.42
2023-09-17T13:28:27.983Z,3.83
2023-09-17T13:30:53.419Z,3.80
2023-09-17T13:33:17.550Z,4.07
2023-09-17T13:35:45.218Z,3.40
2023-09-17T13:38:14.110Z,3.63
2023-09-17T13:40:45.098Z,3.92
2023-09-17T13:43:08.791Z,4.35
2023-09-17T13:45:32.462Z,4.10
2023-09-17T13:47:56.169Z,3.80
2023-09-17T13:50:19.827Z,3.95
2023-09-17T13:52:45.881Z,3.83
2023-09-17T13:55:10.743Z,3.80
2023-09-17T13:57:34.429Z,3.90
2023-09-17T13:59:58.012Z,4.07
2023-09-17T14:02:21.674Z,4.03
2023-09-17T14:04:45.544Z,4.18
2023-09-17T14:07:09.513Z,4.15
2023-09-17T14:09:34.500Z,4.13
2023-09-17T14:11:58.187Z,4.28
2023-09-17T14:14:21.878Z,4.38
2023-09-17T14:16:47.439Z,4.65
2023-09-17T14:19:18.083Z,3.90
2023-09-17T14:21:42.057Z,3.83
2023-09-17T14:24:06.174Z,4.55
2023-09-17T14:26:31.294Z,4.28
2023-09-17T14:28:55.055Z,4.60
2023-09-17T14:31:18.923Z,5.35
2023-09-17T14:33:43.044Z,4.07
2023-09-17T14:36:07.078Z,4.32
2023-09-17T14:38:30.794Z,4.07
2023-09-17T14:40:54.452Z,4.15
2023-09-17T14:43:19.469Z,4.10
2023-09-17T14:45:43.136Z,4.18
2023-09-17T14:48:07.410Z,4.63
2023-09-17T14:50:31.184Z,4.35
2023-09-17T14:52:54.788Z,4.25
2023-09-17T14:55:18.473Z,4.13
2023-09-17T14:57:42.857Z,3.80
2023-09-17T15:00:15.226Z,3.78
2023-09-17T15:02:39.142Z,4.00
2023-09-17T15:05:03.614Z,3.83
2023-09-17T15:07:28.085Z,3.65
2023-09-17T15:09:52.600Z,3.90
2023-09-17T15:12:16.328Z,4.20
2023-09-17T15:14:39.984Z,4.18
2023-09-17T15:17:05.243Z,4.07
2023-09-17T15:19:28.939Z,4.30
2023-09-17T15:21:52.732Z,4.40
2023-09-17T15:24:16.306Z,4.13
2023-09-17T15:26:40.027Z,4.15
2023-09-17T15:29:05.036Z,3.80
2023-09-17T15:31:28.837Z,4.45
2023-09-17T15:33:54.308Z,4.18
2023-09-17T15:36:18.680Z,4.25
2023-09-17T15:38:42.280Z,3.83
2023-09-17T15:41:06.616Z,3.90
2023-09-17T15:43:30.394Z,3.80
2023-09-17T15:45:54.098Z,4.00
2023-09-17T15:48:17.741Z,4.05
2023-09-17T15:50:43.241Z,4.30
2023-09-17T15:53:07.047Z,3.92
2023-09-17T15:55:30.781Z,4.00
2023-09-17T15:57:54.569Z,4.03
2023-09-17T16:00:18.539Z,4.28
2023-09-17T16:02:42.500Z,4.50
2023-09-17T16:05:06.962Z,4.05
2023-09-17T16:07:34.085Z,3.70
2023-09-17T16:09:57.885Z,4.20
2023-09-17T16:12:22.646Z,4.00
2023-09-17T16:14:46.307Z,3.53
2023-09-17T16:17:09.999Z,3.53
2023-09-17T16:19:37.230Z,3.88
2023-09-17T16:22:03.681Z,4.13
2023-09-17T16:24:28.669Z,3.80
2023-09-17T16:26:52.285Z,4.30
2023-09-17T16:29:16.045Z,4.10
2023-09-17T16:31:40.985Z,4.20
2023-09-17T16:34:04.812Z,4.38
2023-09-17T16:36:28.644Z,4.22
2023-09-17T16:38:52.259Z,4.18
2023-09-17T16:41:17.270Z,4.30
2023-09-17T16:43:42.130Z,3.90
2023-09-17T16:46:05.864Z,3.95
2023-09-17T16:48:29.743Z,4.15
2023-09-17T16:50:53.507Z,4.13
2023-09-17T16:53:18.608Z,4.38
2023-09-17T16:55:42.878Z,4.10
2023-09-17T16:58:08.146Z,3.95
2023-09-17T17:00:32.356Z,4.70
2023-09-17T17:02:56.125Z,4.30
2023-09-17T17:05:20.645Z,4.32
2023-09-17T17:07:44.434Z,4.50
2023-09-17T17:10:08.825Z,4.30
2023-09-17T17:12:32.979Z,4.30
2023-09-17T17:14:58.168Z,4.60
2023-09-17T17:17:21.879Z,4.35
2023-09-17T17:19:45.630Z,5.03
2023-09-17T17:22:09.474Z,4.90
2023-09-17T17:24:33.268Z,4.60
2023-09-17T17:26:57.040Z,5.15
2023-09-17T17:29:20.744Z,5.40
2023-09-17T17:31:45.856Z,5.88
2023-09-17T17:34:11.416Z,5.43
2023-09-17T17:36:35.162Z,5.43
2023-09-17T17:38:58.766Z,5.40
2023-09-17T17:41:22.424Z,5.57
2023-09-17T17:43:46.089Z,6.07
2023-09-17T17:46:10.145Z,5.78
2023-09-17T17:48:35.361Z,5.72
2023-09-17T17:50:59.062Z,5.53
2023-09-17T17:53:22.722Z,5.57
2023-09-17T17:55:46.450Z,5.78
2023-09-17T17:58:10.126Z,6.45
2023-09-17T18:00:34.011Z,6.28
2023-09-17T18:02:57.906Z,5.78
2023-09-17T18:05:23.142Z,6.35
2023-09-17T18:07:47.064Z,6.60
2023-09-17T18:10:12.661Z,6.57
2023-09-17T18:12:36.407Z,6.28
2023-09-17T18:15:00.035Z,6.22
2023-09-17T18:17:23.708Z,6.20
2023-09-17T18:19:47.387Z,6.05
2023-09-17T18:22:12.430Z,6.72
2023-09-17T18:24:36.039Z,6.63
2023-09-17T18:26:59.692Z,6.13
2023-09-17T18:29:28.416Z,6.38
2023-09-17T18:31:52.172Z,6.90
2023-09-17T18:34:15.908Z,6.40
2023-09-17T18:36:42.403Z,6.68
2023-09-17T18:39:07.525Z,6.97
2023-09-17T18:41:31.187Z,7.40
2023-09-17T18:43:55.174Z,6.82
2023-09-17T18:46:19.675Z,6.82
2023-09-17T18:48:43.379Z,6.97
2023-09-17T18:51:07.291Z,6.82
2023-09-17T18:53:30.932Z,7.22
2023-09-17T18:55:55.918Z,7.30
2023-09-17T18:58:19.616Z,7.22
2023-09-17T19:00:43.365Z,7.22
2023-09-17T19:03:07.354Z,7.25
2023-09-17T19:05:31.130Z,7.50
2023-09-17T19:07:54.778Z,7.70
2023-09-17T19:10:18.725Z,7.30
2023-09-17T19:12:43.988Z,7.63
2023-09-17T19:15:09.748Z,7.85
2023-09-17T19:17:33.964Z,7.57
2023-09-17T19:19:57.652Z,7.10
2023-09-17T19:22:21.352Z,7.40
2023-09-17T19:24:45.081Z,7.60
2023-09-17T19:27:08.740Z,7.22
2023-09-17T19:29:33.794Z,7.45
2023-09-17T19:31:57.505Z,8.25
2023-09-17T19:34:21.178Z,7.22
2023-09-17T19:36:44.770Z,7.22
2023-09-17T19:39:09.249Z,7.30
2023-09-17T19:41:35.046Z,7.63
2023-09-17T19:43:58.754Z,7.35
2023-09-17T19:46:26.340Z,8.20
2023-09-17T19:48:50.313Z,7.38
2023-09-17T19:51:14.110Z,7.75
2023-09-17T19:53:39.743Z,7.47
2023-09-17T19:56:03.404Z,7.30
2023-09-17T19:58:27.054Z,7.82
2023-09-17T20:00:51.227Z,8.13
2023-09-17T20:03:16.716Z,8.38
2023-09-17T20:05:40.458Z,7.75
2023-09-17T20:08:08.575Z,8.30
2023-09-17T20:10:32.507Z,8.75
2023-09-17T20:12:56.166Z,8.85
2023-09-17T20:15:19.827Z,8.32
2023-09-17T20:17:44.229Z,7.85
2023-09-17T20:20:10.449Z,9.05
2023-09-17T20:22:44.528Z,8.60
2023-09-17T20:25:09.941Z,8.70
2023-09-17T20:27:33.584Z,8.57
2023-09-17T20:29:57.250Z,8.60
2023-09-17T20:32:20.908Z,8.82
2023-09-17T20:34:44.602Z,8.23
2023-09-17T20:37:10.404Z,8.60
2023-09-17T20:39:34.275Z,10.10
2023-09-17T20:41:57.982Z,9.30
2023-09-17T20:44:23.080Z,9.25
2023-09-17T20:46:47.609Z,9.32
2023-09-17T20:49:11.403Z,8.57
2023-09-17T20:51:34.979Z,9.95
2023-09-17T20:54:00.029Z,10.15
2023-09-17T20:56:23.761Z,9.57
2023-09-17T20:58:48.028Z,9.02
2023-09-17T21:01:11.775Z,9.70
2023-09-17T21:03:35.519Z,9.93
2023-09-17T21:05:59.238Z,10.25
2023-09-17T21:08:22.917Z,9.80
2023-09-17T21:10:48.791Z,9.20
2023-09-17T21:13:12.607Z,9.02
2023-09-17T21:15:36.416Z,9.23
2023-09-17T21:18:00.140Z,9.57
2023-09-17T21:20:23.784Z,9.45
2023-09-17T21:22:49.443Z,9.18
2023-09-17T21:25:13.293Z,9.30
2023-09-17T21:27:39.414Z,9.52
2023-09-17T21:30:03.018Z,9.35
2023-09-17T21:32:27.106Z,9.70
2023-09-17T21:34:50.901Z,9.50
2023-09-17T21:37:14.601Z,9.20
2023-09-17T21:39:38.344Z,9.88
2023-09-17T21:42:02.067Z,10.10
2023-09-17T21:44:27.172Z,9.73
2023-09-17T21:46:51.176Z,10.07
2023-09-17T21:49:16.412Z,9.57
2023-09-17T21:51:40.131Z,9.55
2023-09-17T21:54:03.784Z,8.95
2023-09-17T21:56:27.518Z,9.63
2023-09-17T21:58:51.455Z,9.57
2023-09-17T22:01:19.439Z,9.77
2023-09-17T22:03:43.434Z,9.95
2023-09-17T22:06:07.381Z,9.90
2023-09-17T22:08:30.986Z,9.80
2023-09-17T22:10:54.682Z,9.57
2023-09-17T22:13:19.768Z,9.00
2023-09-17T22:15:43.511Z,9.88
2023-09-17T22:18:09.458Z,9.18
2023-09-17T22:20:33.448Z,9.45
2023-09-17T22:22:57.695Z,9.45
2023-09-17T22:25:21.604Z,9.38
2023-09-17T22:27:45.169Z,9.30
2023-09-17T22:30:10.610Z,9.38
2023-09-17T22:32:34.295Z,9.05
2023-09-17T22:34:59.413Z,9.32
2023-09-17T22:37:23.168Z,9.50
2023-09-17T22:39:47.563Z,8.65
2023-09-17T22:42:11.177Z,8.63
2023-09-17T22:44:38.057Z,9.27
2023-09-17T22:47:03.111Z,9.25
2023-09-17T22:49:30.257Z,9.35
2023-09-17T22:51:56.330Z,9.23
2023-09-17T22:54:20.778Z,9.48
2023-09-17T22:56:44.404Z,9.50
2023-09-17T22:59:08.153Z,9.90
2023-09-17T23:01:31.926Z,9.73
2023-09-17T23:03:55.650Z,9.30
2023-09-17T23:06:19.396Z,9.80
2023-09-17T23:08:44.534Z,9.02
2023-09-17T23:11:08.922Z,9.68
2023-09-17T23:13:32.935Z,9.70
2023-09-17T23:15:57.047Z,9.80
2023-09-17T23:18:21.061Z,9.32
2023-09-17T23:20:44.825Z,9.30
2023-09-17T23:23:09.942Z,9.60
2023-09-17T23:25:35.428Z,9.38
2023-09-17T23:27:59.588Z,9.27
2023-09-17T23:30:23.453Z,8.73
2023-09-17T23:32:48.177Z,8.98
2023-09-17T23:35:13.225Z,9.65
2023-09-17T23:37:36.974Z,9.10
2023-09-17T23:40:00.682Z,9.40
2023-09-17T23:42:25.742Z,9.88
2023-09-17T23:44:49.507Z,9.38
2023-09-17T23:47:13.213Z,8.90
2023-09-17T23:49:36.953Z,9.35
2023-09-17T23:52:00.591Z,9.10
2023-09-17T23:54:24.293Z,9.32
2023-09-17T23:56:47.971Z,9.48
2023-09-17T23:59:12.998Z,9.07
